Youngstown, Canada
Current Conditions -  °F | °C
As of 6:00 AM on Thursday 23 Oct 2014 (Local Time) from CYKY Reporting Station
Overcast Overcast  
Wind Chill: 37°   Ceiling: 24000
Heat Index: 43°   Visibility: 15mi
Dew Point: 36°   Wind: 12mph
Humidity: 76%   Direction: 160°SSE
Pressure: 29.62"   Gusts: NA
Location:  51.53°N, 111.2°W
Report Text: CYKY 231200Z 16010KT 15SM FEW055 SCT100 OVC240 06/02 A2962 RMK SC1AC3CI4 SLP042
Loading
Personal Weather Stations






























Interactive Weather Map
Tropical Storm Tracking
New forecast layout! Learn more

10-Day Weather Forecast

Advertisements
Track Severe Weather on mobile